Washoe Valley, Nevada
Current Conditions -  °F | °C
As of 3:35 AM on Tuesday 21 Oct 2014 (Local Time) from KCXP Reporting Station
Clear Clear  
Wind Chill: 42°   Ceiling: Unl
Heat Index: 46°   Visibility: 10mi
Dew Point: 23°   Wind: 8mph
Humidity: 40%   Direction: 240°WSW
Pressure: 30.05"   Gusts: NA
Location:  39.32°N, 119.8°W
Report Text: KCXP 211035Z AUTO 24007KT 10SM CLR 08/M05 A3005 RMK AO2
Loading
Personal Weather Stations






























Interactive Weather Map
Tropical Storm Tracking
New forecast layout! Learn more

10-Day Weather Forecast

Advertisements
Track Severe Weather on mobile